createdAt,value
2016-09-29T00:00:07.461Z,20.74
2016-09-29T00:01:07.435Z,20.66
2016-09-29T00:02:07.416Z,20.77
2016-09-29T00:03:07.391Z,20.7
2016-09-29T00:04:07.380Z,20.78
2016-09-29T00:05:07.360Z,20.67
2016-09-29T00:06:07.339Z,20.74
2016-09-29T00:07:07.326Z,20.7
2016-09-29T00:08:07.303Z,20.67
2016-09-29T00:09:07.286Z,20.78
2016-09-29T00:10:07.261Z,20.78
2016-09-29T00:11:07.245Z,20.72
2016-09-29T00:12:07.226Z,20.75
2016-09-29T00:13:07.204Z,20.72
2016-09-29T00:14:07.187Z,20.78
2016-09-29T00:15:07.167Z,20.75
2016-09-29T00:16:07.149Z,20.75
2016-09-29T00:17:07.134Z,20.75
2016-09-29T00:18:07.111Z,20.78
2016-09-29T00:19:07.089Z,20.84
2016-09-29T00:20:07.080Z,20.74
2016-09-29T00:21:07.052Z,20.67
2016-09-29T00:22:07.034Z,20.7
2016-09-29T00:23:07.007Z,20.7
2016-09-29T00:24:06.999Z,20.67
2016-09-29T00:25:07.285Z,20.74
2016-09-29T00:26:06.953Z,20.67
2016-09-29T00:27:06.944Z,20.74
2016-09-29T00:28:06.921Z,20.7
2016-09-29T00:29:06.898Z,20.77
2016-09-29T00:30:06.879Z,20.7
2016-09-29T00:31:06.861Z,20.69
2016-09-29T00:32:06.846Z,20.75
2016-09-29T00:33:07.129Z,20.72
2016-09-29T00:34:06.804Z,20.7
2016-09-29T00:35:06.788Z,20.67
2016-09-29T00:36:06.765Z,20.72
2016-09-29T00:37:06.747Z,20.69
2016-09-29T00:38:06.731Z,20.77
2016-09-29T00:39:06.707Z,20.67
2016-09-29T00:40:06.695Z,20.69
2016-09-29T00:41:06.667Z,20.75
2016-09-29T00:42:06.653Z,20.72
2016-09-29T00:43:06.630Z,20.78
2016-09-29T00:44:06.611Z,20.72
2016-09-29T00:45:06.589Z,20.75
2016-09-29T00:46:06.577Z,20.77
2016-09-29T00:47:06.604Z,20.8
2016-09-29T00:48:06.538Z,20.78
2016-09-29T00:49:06.517Z,20.75
2016-09-29T00:50:06.493Z,20.75
2016-09-29T00:51:06.475Z,20.67
2016-09-29T00:52:06.465Z,20.74
2016-09-29T00:53:06.445Z,20.67
2016-09-29T00:54:06.421Z,20.7
2016-09-29T00:55:06.402Z,20.7
2016-09-29T00:56:06.384Z,20.75
2016-09-29T00:57:06.367Z,20.75
2016-09-29T00:58:06.356Z,20.7
2016-09-29T00:59:06.329Z,20.72
2016-09-29T01:00:06.302Z,20.72
2016-09-29T01:01:06.289Z,20.77
2016-09-29T01:02:06.274Z,20.7
2016-09-29T01:03:06.249Z,20.75
2016-09-29T01:04:06.229Z,20.7
2016-09-29T01:05:06.213Z,20.7
2016-09-29T01:06:06.193Z,20.74
2016-09-29T01:07:06.165Z,20.75
2016-09-29T01:08:06.148Z,20.67
2016-09-29T01:09:06.140Z,20.72
2016-09-29T01:10:06.118Z,20.7
2016-09-29T01:11:06.100Z,20.69
2016-09-29T01:12:06.074Z,20.7
2016-09-29T01:13:06.056Z,20.77
2016-09-29T01:14:06.044Z,20.65
2016-09-29T01:15:06.020Z,20.7
2016-09-29T01:16:06.001Z,20.65
2016-09-29T01:17:05.987Z,20.77
2016-09-29T01:18:05.956Z,20.62
2016-09-29T01:19:05.943Z,20.67
2016-09-29T01:20:05.925Z,20.6
2016-09-29T01:21:05.911Z,20.62
2016-09-29T01:22:05.890Z,20.6
2016-09-29T01:23:05.867Z,20.65
2016-09-29T01:24:05.844Z,20.67
2016-09-29T01:25:05.831Z,20.58
2016-09-29T01:26:05.822Z,20.65
2016-09-29T01:27:05.785Z,20.65
2016-09-29T01:28:05.776Z,20.58
2016-09-29T01:29:05.757Z,20.55
2016-09-29T01:30:05.733Z,20.59
2016-09-29T01:31:05.707Z,20.51
2016-09-29T01:32:05.695Z,20.44
2016-09-29T01:33:05.670Z,20.51
2016-09-29T01:34:05.749Z,20.55
2016-09-29T01:35:05.637Z,20.43
2016-09-29T01:36:05.615Z,20.44
2016-09-29T01:37:05.603Z,20.37
2016-09-29T01:38:05.572Z,20.36
2016-09-29T01:39:05.856Z,20.39
2016-09-29T01:40:05.540Z,20.29
2016-09-29T01:41:05.525Z,20.29
2016-09-29T01:42:05.501Z,20.31
2016-09-29T01:43:05.485Z,20.26
2016-09-29T01:44:05.460Z,20.18
2016-09-29T01:45:05.437Z,20.19
2016-09-29T01:46:05.419Z,20.18
2016-09-29T01:47:05.410Z,20.19
2016-09-29T01:48:05.382Z,20.02
2016-09-29T01:49:05.363Z,20.03
2016-09-29T01:50:05.347Z,20.1
2016-09-29T01:51:05.323Z,20.04
2016-09-29T01:52:05.306Z,20.04
2016-09-29T01:53:05.290Z,20.02
2016-09-29T01:54:05.269Z,19.96
2016-09-29T01:55:05.244Z,19.94
2016-09-29T01:56:05.225Z,19.91
2016-09-29T01:57:05.208Z,19.89
2016-09-29T01:58:05.187Z,19.94
2016-09-29T01:59:05.171Z,19.89
2016-09-29T02:00:05.147Z,19.86
2016-09-29T02:01:05.119Z,19.82
2016-09-29T02:02:05.106Z,19.88
2016-09-29T02:03:05.095Z,19.86
2016-09-29T02:04:05.065Z,19.73
2016-09-29T02:05:05.049Z,19.7
2016-09-29T02:06:05.327Z,19.74
2016-09-29T02:07:05.003Z,19.71
2016-09-29T02:08:04.991Z,19.7
2016-09-29T02:09:04.970Z,19.7
2016-09-29T02:10:04.941Z,19.73
2016-09-29T02:11:04.922Z,19.7
2016-09-29T02:12:04.906Z,19.63
2016-09-29T02:13:04.881Z,19.64
2016-09-29T02:14:04.863Z,19.73
2016-09-29T02:15:04.849Z,19.7
2016-09-29T02:16:04.825Z,19.69
2016-09-29T02:17:04.800Z,19.69
2016-09-29T02:18:04.785Z,19.71
2016-09-29T02:19:04.766Z,19.67
2016-09-29T02:20:04.742Z,19.66
2016-09-29T02:21:04.729Z,19.63
2016-09-29T02:22:04.704Z,19.66
2016-09-29T02:23:04.685Z,19.64
2016-09-29T02:24:04.662Z,19.64
2016-09-29T02:25:04.643Z,19.62
2016-09-29T02:26:04.623Z,19.64
2016-09-29T02:27:04.598Z,19.58
2016-09-29T02:28:04.582Z,19.54
2016-09-29T02:29:04.560Z,19.52
2016-09-29T02:30:04.538Z,19.51
2016-09-29T02:31:04.521Z,19.49
2016-09-29T02:32:04.510Z,19.52
2016-09-29T02:33:04.481Z,19.59
2016-09-29T02:34:04.464Z,19.54
2016-09-29T02:35:04.462Z,19.47
2016-09-29T02:36:04.420Z,19.49
2016-09-29T02:37:04.403Z,19.51
2016-09-29T02:38:04.389Z,19.55
2016-09-29T02:39:04.363Z,19.51
2016-09-29T02:40:04.342Z,19.52
2016-09-29T02:41:04.318Z,19.49
2016-09-29T02:42:04.292Z,19.51
2016-09-29T02:43:04.280Z,19.49
2016-09-29T02:44:04.259Z,19.51
2016-09-29T02:45:04.241Z,19.45
2016-09-29T02:46:04.220Z,19.48
2016-09-29T02:47:04.198Z,19.48
2016-09-29T02:48:04.178Z,19.44
2016-09-29T02:49:04.163Z,19.45
2016-09-29T02:50:04.136Z,19.45
2016-09-29T02:51:04.120Z,19.36
2016-09-29T02:52:04.095Z,19.39
2016-09-29T02:53:04.071Z,19.45
2016-09-29T02:54:04.057Z,19.4
2016-09-29T02:55:04.030Z,19.44
2016-09-29T02:56:04.016Z,19.41
2016-09-29T02:57:03.994Z,19.4
2016-09-29T02:58:03.970Z,19.39
2016-09-29T02:59:03.956Z,19.33
2016-09-29T03:00:03.929Z,19.31
2016-09-29T03:01:03.918Z,19.34
2016-09-29T03:02:03.888Z,19.34
2016-09-29T03:03:03.870Z,19.36
2016-09-29T03:04:03.846Z,19.27
2016-09-29T03:05:03.833Z,19.27
2016-09-29T03:06:03.812Z,19.3
2016-09-29T03:07:04.105Z,19.29
2016-09-29T03:08:03.773Z,19.24
2016-09-29T03:09:03.751Z,19.27
2016-09-29T03:10:03.725Z,19.19
2016-09-29T03:11:03.711Z,19.19
2016-09-29T03:12:03.682Z,19.27
2016-09-29T03:13:03.673Z,19.22
2016-09-29T03:14:03.647Z,19.22
2016-09-29T03:15:03.623Z,19.18
2016-09-29T03:16:03.612Z,19.22
2016-09-29T03:17:03.585Z,19.24
2016-09-29T03:18:03.563Z,19.27
2016-09-29T03:19:03.550Z,19.19
2016-09-29T03:20:03.524Z,19.18
2016-09-29T03:21:03.495Z,19.16
2016-09-29T03:22:03.477Z,19.19
2016-09-29T03:23:03.463Z,19.18
2016-09-29T03:24:03.441Z,19.16
2016-09-29T03:25:03.427Z,19.11
2016-09-29T03:26:03.404Z,19.12
2016-09-29T03:27:03.376Z,19.16
2016-09-29T03:28:03.355Z,19.08
2016-09-29T03:29:03.345Z,19.11
2016-09-29T03:30:03.328Z,19.16
2016-09-29T03:31:03.600Z,19.11
2016-09-29T03:32:03.281Z,19.12
2016-09-29T03:33:03.262Z,19.15
2016-09-29T03:34:03.542Z,19.11
2016-09-29T03:35:03.211Z,19.12
2016-09-29T03:36:03.198Z,19.12
2016-09-29T03:37:03.170Z,19.08
2016-09-29T03:38:03.151Z,19.18
2016-09-29T03:39:03.151Z,19.04
2016-09-29T03:40:03.115Z,19.16
2016-09-29T03:41:03.090Z,19.04
2016-09-29T03:42:03.393Z,19.04
2016-09-29T03:43:03.351Z,19
2016-09-29T03:44:03.024Z,18.99
2016-09-29T03:45:03.016Z,19.04
2016-09-29T03:46:02.994Z,19.11
2016-09-29T03:47:02.969Z,19.02
2016-09-29T03:48:02.957Z,19.04
2016-09-29T03:49:02.940Z,19.02
2016-09-29T03:50:02.923Z,18.95
2016-09-29T03:51:02.893Z,19.02
2016-09-29T03:52:02.869Z,19.04
2016-09-29T03:53:02.850Z,18.99
2016-09-29T03:54:02.830Z,18.99
2016-09-29T03:55:02.801Z,19
2016-09-29T03:56:02.781Z,18.99
2016-09-29T03:57:02.765Z,18.99
2016-09-29T03:58:02.746Z,18.99
2016-09-29T03:59:02.724Z,18.86
2016-09-29T04:00:02.702Z,18.98
2016-09-29T04:01:02.734Z,18.95
2016-09-29T04:02:02.655Z,18.86
2016-09-29T04:03:02.932Z,18.86
2016-09-29T04:04:02.622Z,18.98
2016-09-29T04:05:02.595Z,18.95
2016-09-29T04:06:02.571Z,18.83
2016-09-29T04:07:02.549Z,18.83
2016-09-29T04:08:02.536Z,18.95
2016-09-29T04:09:02.515Z,18.88
2016-09-29T04:10:02.495Z,18.92
2016-09-29T04:11:02.485Z,18.93
2016-09-29T04:12:02.449Z,18.86
2016-09-29T04:13:02.431Z,18.93
2016-09-29T04:14:02.430Z,18.88
2016-09-29T04:15:02.382Z,18.86
2016-09-29T04:16:02.371Z,18.88
2016-09-29T04:17:02.350Z,18.83
2016-09-29T04:18:02.329Z,18.84
2016-09-29T04:19:02.306Z,18.84
2016-09-29T04:20:02.290Z,18.77
2016-09-29T04:21:02.264Z,18.8
2016-09-29T04:22:02.545Z,18.86
2016-09-29T04:23:02.227Z,18.86
2016-09-29T04:24:02.202Z,18.8
2016-09-29T04:25:02.188Z,18.71
2016-09-29T04:26:02.162Z,18.78
2016-09-29T04:27:02.138Z,18.77
2016-09-29T04:28:02.118Z,18.7
2016-09-29T04:29:02.104Z,18.73
2016-09-29T04:30:02.077Z,18.7
2016-09-29T04:31:02.059Z,18.6
2016-09-29T04:32:02.035Z,18.71
2016-09-29T04:33:02.015Z,18.68
2016-09-29T04:34:02.296Z,18.6
2016-09-29T04:35:02.272Z,18.6
2016-09-29T04:36:01.956Z,18.59
2016-09-29T04:37:01.930Z,18.7
2016-09-29T04:38:01.907Z,18.71
2016-09-29T04:39:01.889Z,18.62
2016-09-29T04:40:01.867Z,18.66
2016-09-29T04:41:01.842Z,18.65
2016-09-29T04:42:01.827Z,18.58
2016-09-29T04:43:02.102Z,18.68
2016-09-29T04:44:01.782Z,18.59
2016-09-29T04:45:02.061Z,18.59
2016-09-29T04:46:01.755Z,18.59
2016-09-29T04:47:01.729Z,18.58
2016-09-29T04:48:01.735Z,18.65
2016-09-29T04:49:01.687Z,18.66
2016-09-29T04:50:01.664Z,18.55
2016-09-29T04:51:01.943Z,18.55
2016-09-29T04:52:01.619Z,18.52
2016-09-29T04:53:01.894Z,18.58
2016-09-29T04:54:01.575Z,18.59
2016-09-29T04:55:01.558Z,18.58
2016-09-29T04:56:01.531Z,18.55
2016-09-29T04:57:01.514Z,18.62
2016-09-29T04:58:01.494Z,18.47
2016-09-29T04:59:01.474Z,18.53
2016-09-29T05:00:01.451Z,18.52
2016-09-29T05:01:01.419Z,18.49
2016-09-29T05:02:01.404Z,18.45
2016-09-29T05:03:01.380Z,18.55
2016-09-29T05:04:01.363Z,18.49
2016-09-29T05:05:01.341Z,18.49
2016-09-29T05:06:01.319Z,18.5
2016-09-29T05:07:01.300Z,18.45
2016-09-29T05:08:01.279Z,18.45
2016-09-29T05:09:01.256Z,18.49
2016-09-29T05:10:01.238Z,18.45
2016-09-29T05:11:01.229Z,18.49
2016-09-29T05:12:01.192Z,18.44
2016-09-29T05:13:01.172Z,18.44
2016-09-29T05:14:01.154Z,18.43
2016-09-29T05:15:01.133Z,18.41
2016-09-29T05:16:01.111Z,18.41
2016-09-29T05:17:01.090Z,18.49
2016-09-29T05:18:01.069Z,18.41
2016-09-29T05:19:01.172Z,18.37
2016-09-29T05:20:01.021Z,18.41
2016-09-29T05:21:01.001Z,18.45
2016-09-29T05:22:00.985Z,18.37
2016-09-29T05:23:00.954Z,18.41
2016-09-29T05:24:00.934Z,18.23
2016-09-29T05:25:00.924Z,18.41
2016-09-29T05:26:00.900Z,18.33
2016-09-29T05:27:00.875Z,18.34
2016-09-29T05:28:00.876Z,18.33
2016-09-29T05:29:00.837Z,18.33
2016-09-29T05:30:00.811Z,18.34
2016-09-29T05:31:00.808Z,18.25
2016-09-29T05:32:00.770Z,18.26
2016-09-29T05:33:00.753Z,18.28
2016-09-29T05:34:00.724Z,18.22
2016-09-29T05:35:00.707Z,18.25
2016-09-29T05:36:00.684Z,18.25
2016-09-29T05:37:00.667Z,18.22
2016-09-29T05:38:00.638Z,18.22
2016-09-29T05:39:00.622Z,18.23
2016-09-29T05:40:00.602Z,18.18
2016-09-29T05:41:00.581Z,18.16
2016-09-29T05:42:00.552Z,18.22
2016-09-29T05:43:00.533Z,18.19
2016-09-29T05:44:00.519Z,18.19
2016-09-29T05:45:00.490Z,18.15
2016-09-29T05:46:00.472Z,18.23
2016-09-29T05:47:00.448Z,18.19
2016-09-29T05:48:00.451Z,18.19
2016-09-29T05:49:00.408Z,18.19
2016-09-29T05:50:00.377Z,18.22
2016-09-29T05:51:00.363Z,18.19
2016-09-29T05:52:00.345Z,18.16
2016-09-29T05:53:00.323Z,18.2
2016-09-29T05:54:00.301Z,18.26
2016-09-29T05:55:00.284Z,18.2
2016-09-29T05:56:00.252Z,18.22
2016-09-29T05:57:00.237Z,18.16
2016-09-29T05:58:00.217Z,18.26
2016-09-29T05:59:00.192Z,18.23
2016-09-29T06:00:00.172Z,18.25
2016-09-29T06:01:00.149Z,18.26
2016-09-29T06:02:00.129Z,18.2
2016-09-29T06:03:00.108Z,18.28
2016-09-29T06:04:00.081Z,18.23
2016-09-29T06:05:00.066Z,18.2
2016-09-29T06:06:00.046Z,18.33
2016-09-29T06:07:00.021Z,18.31
2016-09-29T06:08:00.010Z,18.35
2016-09-29T06:08:59.978Z,18.31
2016-09-29T06:09:59.960Z,18.38
2016-09-29T06:10:59.945Z,18.33
2016-09-29T06:11:59.921Z,18.38
2016-09-29T06:12:59.897Z,18.41
2016-09-29T06:13:59.892Z,18.37
2016-09-29T06:14:59.858Z,18.31
2016-09-29T06:15:59.849Z,18.4
2016-09-29T06:16:59.818Z,18.43
2016-09-29T06:17:59.793Z,18.37
2016-09-29T06:18:59.775Z,18.37
2016-09-29T06:19:59.748Z,18.4
2016-09-29T06:20:59.726Z,18.41
2016-09-29T06:21:59.707Z,18.37
2016-09-29T06:22:59.689Z,18.34
2016-09-29T06:23:59.659Z,18.37
2016-09-29T06:24:59.643Z,18.41
2016-09-29T06:25:59.633Z,18.44
2016-09-29T06:26:59.901Z,18.49
2016-09-29T06:27:59.581Z,18.47
2016-09-29T06:28:59.566Z,18.41
2016-09-29T06:29:59.543Z,18.45
2016-09-29T06:30:59.536Z,18.37
2016-09-29T06:31:59.495Z,18.41
2016-09-29T06:32:59.478Z,18.41
2016-09-29T06:33:59.458Z,18.41
2016-09-29T06:34:59.429Z,18.52
2016-09-29T06:36:00.476Z,18.44
2016-09-29T06:36:59.396Z,18.49
2016-09-29T06:37:59.376Z,18.44
2016-09-29T06:38:59.353Z,18.5
2016-09-29T06:39:59.332Z,18.45
2016-09-29T06:40:59.309Z,18.41
2016-09-29T06:41:59.291Z,18.47
2016-09-29T06:42:59.279Z,18.45
2016-09-29T06:43:59.549Z,18.44
2016-09-29T06:44:59.230Z,18.52
2016-09-29T06:45:59.209Z,18.49
2016-09-29T06:46:59.183Z,18.45
2016-09-29T06:47:59.165Z,18.5
2016-09-29T06:48:59.513Z,18.49
2016-09-29T06:49:59.129Z,18.49
2016-09-29T06:50:59.106Z,18.5
2016-09-29T06:51:59.080Z,18.49
2016-09-29T06:52:59.060Z,18.53
2016-09-29T06:53:59.041Z,18.53
2016-09-29T06:54:59.023Z,18.56
2016-09-29T06:55:59.000Z,18.6
2016-09-29T06:56:58.983Z,18.52
2016-09-29T06:57:58.965Z,18.5
2016-09-29T06:58:58.944Z,18.52
2016-09-29T06:59:58.915Z,18.53
2016-09-29T07:00:58.901Z,18.58
2016-09-29T07:01:58.880Z,18.58
2016-09-29T07:02:58.857Z,18.58
2016-09-29T07:03:58.837Z,18.49
2016-09-29T07:04:58.820Z,18.58
2016-09-29T07:05:59.004Z,18.56
2016-09-29T07:06:58.775Z,18.52
2016-09-29T07:07:58.763Z,18.58
2016-09-29T07:08:58.724Z,18.59
2016-09-29T07:09:58.947Z,18.65
2016-09-29T07:10:58.694Z,18.63
2016-09-29T07:11:58.667Z,18.6
2016-09-29T07:12:58.651Z,18.59
2016-09-29T07:13:58.626Z,18.62
2016-09-29T07:14:58.617Z,18.63
2016-09-29T07:15:58.591Z,18.68
2016-09-29T07:16:58.575Z,18.62
2016-09-29T07:17:58.545Z,18.65
2016-09-29T07:18:58.527Z,18.6
2016-09-29T07:19:58.506Z,18.62
2016-09-29T07:20:58.485Z,18.71
2016-09-29T07:21:58.472Z,18.71
2016-09-29T07:22:58.451Z,18.77
2016-09-29T07:23:58.427Z,18.9
2016-09-29T07:24:58.400Z,18.84
2016-09-29T07:25:58.387Z,18.92
2016-09-29T07:26:58.366Z,18.88
2016-09-29T07:27:58.346Z,18.95
2016-09-29T07:28:58.320Z,18.98
2016-09-29T07:29:58.308Z,18.99
2016-09-29T07:30:58.289Z,19.04
2016-09-29T07:31:58.272Z,19.15
2016-09-29T07:32:58.240Z,19.22
2016-09-29T07:33:58.221Z,19.24
2016-09-29T07:34:58.210Z,19.26
2016-09-29T07:35:58.185Z,19.33
2016-09-29T07:36:58.175Z,19.34
2016-09-29T07:37:58.149Z,19.45
2016-09-29T07:38:58.123Z,19.44
2016-09-29T07:39:58.110Z,19.47
2016-09-29T07:40:58.088Z,19.47
2016-09-29T07:41:58.073Z,19.48
2016-09-29T07:42:58.052Z,19.48
2016-09-29T07:43:58.328Z,19.55
2016-09-29T07:44:58.009Z,19.49
2016-09-29T07:45:57.989Z,19.49
2016-09-29T07:46:57.968Z,19.55
2016-09-29T07:47:57.957Z,19.63
2016-09-29T07:48:57.933Z,19.64
2016-09-29T07:49:57.919Z,19.7
2016-09-29T07:50:57.904Z,19.73
2016-09-29T07:51:57.881Z,19.85
2016-09-29T07:52:57.863Z,19.82
2016-09-29T07:53:57.842Z,19.85
2016-09-29T07:54:57.825Z,19.89
2016-09-29T07:55:57.805Z,19.92
2016-09-29T07:56:57.780Z,19.99
2016-09-29T07:57:57.773Z,19.96
2016-09-29T07:58:57.801Z,20.06
2016-09-29T07:59:57.736Z,20.09
2016-09-29T08:00:57.706Z,20.07
2016-09-29T08:01:57.691Z,20.07
2016-09-29T08:02:57.674Z,20.19
2016-09-29T08:03:57.650Z,20.18
2016-09-29T08:04:57.648Z,20.22
2016-09-29T08:05:57.617Z,20.22
2016-09-29T08:06:57.604Z,20.31
2016-09-29T08:07:57.575Z,20.26
2016-09-29T08:08:57.562Z,20.4
2016-09-29T08:09:57.546Z,20.37
2016-09-29T08:10:57.525Z,20.36
2016-09-29T08:11:57.508Z,20.39
2016-09-29T08:12:57.488Z,20.37
2016-09-29T08:13:57.468Z,20.48
2016-09-29T08:14:57.453Z,20.44
2016-09-29T08:15:57.434Z,20.43
2016-09-29T08:16:57.416Z,20.4
2016-09-29T08:17:57.406Z,20.43
2016-09-29T08:18:57.379Z,20.48
2016-09-29T08:19:57.372Z,20.58
2016-09-29T08:20:57.347Z,20.58
2016-09-29T08:21:57.327Z,20.59
2016-09-29T08:22:57.307Z,20.55
2016-09-29T08:23:57.294Z,20.66
2016-09-29T08:24:57.568Z,20.66
2016-09-29T08:25:57.258Z,20.67
2016-09-29T08:26:57.232Z,20.7
2016-09-29T08:27:57.212Z,20.7
2016-09-29T08:28:57.201Z,20.78
2016-09-29T08:29:57.182Z,20.84
2016-09-29T08:30:57.167Z,20.85
2016-09-29T08:31:57.141Z,20.97
2016-09-29T08:32:57.130Z,20.92
2016-09-29T08:33:57.114Z,21.03
2016-09-29T08:34:57.094Z,21.11
2016-09-29T08:35:57.074Z,21.12
2016-09-29T08:36:57.058Z,21.27
2016-09-29T08:37:57.041Z,21.27
2016-09-29T08:38:57.017Z,21.39
2016-09-29T08:39:57.021Z,21.42
2016-09-29T08:40:56.999Z,21.5
2016-09-29T08:41:57.110Z,21.58
2016-09-29T08:42:57.065Z,21.55
2016-09-29T08:43:56.932Z,21.57
2016-09-29T08:44:56.921Z,21.54
2016-09-29T08:45:56.910Z,21.55
2016-09-29T08:46:56.890Z,21.57
2016-09-29T08:47:56.881Z,21.48
2016-09-29T08:48:56.859Z,21.54
2016-09-29T08:49:56.838Z,21.55
2016-09-29T08:50:57.121Z,21.6
2016-09-29T08:51:56.796Z,21.51
2016-09-29T08:52:56.785Z,21.45
2016-09-29T08:53:56.769Z,21.46
2016-09-29T08:54:56.746Z,21.46
2016-09-29T08:55:56.734Z,21.52
2016-09-29T08:56:56.716Z,21.5
2016-09-29T08:57:56.697Z,21.57
2016-09-29T08:58:56.690Z,21.5
2016-09-29T08:59:56.663Z,21.48
2016-09-29T09:00:56.645Z,21.52
2016-09-29T09:01:56.624Z,21.54
2016-09-29T09:02:56.617Z,21.52
2016-09-29T09:03:56.587Z,21.58
2016-09-29T09:04:56.678Z,21.52
2016-09-29T09:05:56.557Z,21.5
2016-09-29T09:06:56.540Z,21.57
2016-09-29T09:07:56.531Z,21.58
2016-09-29T09:08:56.504Z,21.52
2016-09-29T09:09:56.486Z,21.58
2016-09-29T09:10:56.476Z,21.55
2016-09-29T09:11:56.513Z,21.45
2016-09-29T09:12:56.442Z,21.51
2016-09-29T09:13:56.436Z,21.54
2016-09-29T09:14:56.404Z,21.51
2016-09-29T09:15:56.376Z,21.5
2016-09-29T09:16:56.364Z,21.5
2016-09-29T09:17:56.348Z,21.48
2016-09-29T09:18:56.330Z,21.54
2016-09-29T09:19:56.757Z,21.51
2016-09-29T09:20:56.295Z,21.46
2016-09-29T09:21:56.286Z,21.52
2016-09-29T09:22:56.262Z,21.5
2016-09-29T09:23:56.248Z,21.57
2016-09-29T09:24:56.228Z,21.58
2016-09-29T09:25:56.205Z,21.52
2016-09-29T09:26:56.199Z,21.46
2016-09-29T09:27:56.174Z,21.51
2016-09-29T09:28:56.161Z,21.55
2016-09-29T09:29:56.141Z,21.57
2016-09-29T09:30:56.122Z,21.55
2016-09-29T09:31:56.100Z,21.54
2016-09-29T09:32:56.198Z,21.57
2016-09-29T09:33:56.063Z,21.57
2016-09-29T09:34:56.052Z,21.51
2016-09-29T09:35:56.023Z,21.51
2016-09-29T09:36:56.010Z,21.5
2016-09-29T09:37:56.001Z,21.57
2016-09-29T09:38:55.979Z,21.55
2016-09-29T09:39:55.963Z,21.66
2016-09-29T09:40:55.952Z,21.67
2016-09-29T09:41:55.923Z,21.66
2016-09-29T09:42:55.914Z,21.62
2016-09-29T09:43:55.895Z,21.76
2016-09-29T09:44:55.940Z,21.75
2016-09-29T09:45:55.855Z,21.7
2016-09-29T09:46:55.851Z,21.73
2016-09-29T09:47:55.820Z,21.7
2016-09-29T09:48:55.808Z,21.6
2016-09-29T09:49:55.791Z,21.76
2016-09-29T09:50:55.775Z,21.72
2016-09-29T09:51:55.758Z,21.76
2016-09-29T09:52:55.739Z,21.77
2016-09-29T09:53:55.727Z,21.83
2016-09-29T09:54:55.732Z,21.83
2016-09-29T09:55:55.695Z,21.83
2016-09-29T09:56:55.682Z,21.95
2016-09-29T09:57:55.656Z,21.88
2016-09-29T09:58:55.645Z,21.99
2016-09-29T09:59:56.020Z,22.02
2016-09-29T10:00:55.609Z,22.13
2016-09-29T10:01:55.591Z,22.14
2016-09-29T10:02:55.575Z,22.25
2016-09-29T10:03:55.563Z,22.22
2016-09-29T10:04:55.542Z,22.26
2016-09-29T10:05:55.530Z,22.28
2016-09-29T10:06:55.514Z,22.29
2016-09-29T10:07:55.509Z,22.26
2016-09-29T10:08:55.476Z,22.26
2016-09-29T10:09:55.463Z,22.26
2016-09-29T10:10:55.451Z,22.26
2016-09-29T10:11:55.430Z,22.26
2016-09-29T10:12:55.409Z,22.29
2016-09-29T10:13:55.393Z,22.29
2016-09-29T10:14:55.376Z,22.25
2016-09-29T10:15:55.357Z,22.28
2016-09-29T10:16:55.351Z,22.22
2016-09-29T10:17:55.334Z,22.38
2016-09-29T10:18:55.321Z,22.38
2016-09-29T10:19:55.294Z,22.39
2016-09-29T10:20:55.277Z,22.39
2016-09-29T10:21:55.272Z,22.33
2016-09-29T10:22:55.254Z,22.41
2016-09-29T10:23:55.239Z,22.32
2016-09-29T10:24:55.213Z,22.41
2016-09-29T10:25:55.202Z,22.47
2016-09-29T10:26:55.490Z,22.41
2016-09-29T10:27:55.165Z,22.44
2016-09-29T10:28:55.155Z,22.44
2016-09-29T10:29:55.145Z,22.3
2016-09-29T10:30:55.121Z,22.43
2016-09-29T10:31:55.107Z,22.3
2016-09-29T10:32:55.091Z,22.38
2016-09-29T10:33:55.065Z,22.47
2016-09-29T10:34:55.057Z,22.41
2016-09-29T10:35:55.040Z,22.38
2016-09-29T10:36:55.019Z,22.43
2016-09-29T10:37:55.005Z,22.43
2016-09-29T10:38:54.982Z,22.3
2016-09-29T10:39:54.974Z,22.39
2016-09-29T10:40:54.955Z,22.44
2016-09-29T10:41:54.935Z,22.54
2016-09-29T10:42:54.923Z,22.62
2016-09-29T10:43:54.906Z,22.73
2016-09-29T10:44:54.882Z,22.85
2016-09-29T10:45:54.869Z,22.91
2016-09-29T10:46:54.857Z,22.94
2016-09-29T10:47:54.844Z,22.9
2016-09-29T10:48:54.813Z,22.99
2016-09-29T10:49:54.808Z,23.03
2016-09-29T10:50:54.795Z,22.99
2016-09-29T10:51:54.771Z,23.09
2016-09-29T10:52:54.771Z,23.21
2016-09-29T10:53:54.744Z,23.17
2016-09-29T10:54:54.723Z,23.24
2016-09-29T10:55:54.731Z,23.18
2016-09-29T10:56:54.690Z,23.15
2016-09-29T10:57:54.676Z,23.25
2016-09-29T10:58:54.958Z,23.24
2016-09-29T10:59:54.642Z,23.17
2016-09-29T11:00:54.626Z,23.23
2016-09-29T11:01:54.609Z,23.31
2016-09-29T11:02:54.594Z,23.23
2016-09-29T11:03:54.580Z,23.21
2016-09-29T11:04:54.560Z,23.18
2016-09-29T11:05:54.546Z,23.27
2016-09-29T11:06:54.522Z,23.28
2016-09-29T11:07:54.520Z,23.25
2016-09-29T11:08:54.495Z,23.23
2016-09-29T11:09:54.574Z,23.17
2016-09-29T11:10:54.461Z,23.15
2016-09-29T11:11:54.553Z,23.15
2016-09-29T11:12:54.434Z,23.31
2016-09-29T11:13:54.421Z,23.34
2016-09-29T11:14:54.398Z,23.31
2016-09-29T11:15:54.389Z,23.37
2016-09-29T11:16:54.366Z,23.39
2016-09-29T11:17:54.361Z,23.37
2016-09-29T11:18:54.340Z,23.39
2016-09-29T11:19:54.320Z,23.41
2016-09-29T11:20:54.310Z,23.39
2016-09-29T11:21:54.307Z,23.48
2016-09-29T11:22:54.273Z,23.43
2016-09-29T11:23:54.253Z,23.48
2016-09-29T11:24:54.241Z,23.56
2016-09-29T11:25:54.528Z,23.54
2016-09-29T11:26:54.215Z,23.54
2016-09-29T11:27:54.224Z,23.48
2016-09-29T11:28:54.182Z,23.55
2016-09-29T11:29:54.195Z,23.55
2016-09-29T11:30:54.147Z,23.55
2016-09-29T11:31:54.132Z,23.5
2016-09-29T11:32:54.110Z,23.51
2016-09-29T11:33:54.096Z,23.51
2016-09-29T11:34:54.087Z,23.62
2016-09-29T11:35:54.067Z,23.61
2016-09-29T11:36:54.050Z,23.61
2016-09-29T11:37:54.036Z,23.68
2016-09-29T11:38:54.021Z,23.71
2016-09-29T11:39:54.005Z,23.74
2016-09-29T11:40:53.985Z,23.81
2016-09-29T11:41:54.022Z,23.83
2016-09-29T11:42:53.954Z,23.8
2016-09-29T11:43:53.942Z,23.81
2016-09-29T11:44:54.264Z,23.83
2016-09-29T11:45:54.213Z,23.91
2016-09-29T11:46:53.978Z,23.98
2016-09-29T11:47:53.907Z,24.02
2016-09-29T11:48:53.870Z,24.1
2016-09-29T11:49:53.859Z,24.08
2016-09-29T11:50:53.829Z,24.17
2016-09-29T11:51:53.815Z,24.03
2016-09-29T11:52:53.799Z,24.14
2016-09-29T11:53:53.785Z,24.21
2016-09-29T11:54:53.766Z,24.29
2016-09-29T11:55:53.758Z,24.29
2016-09-29T11:56:53.737Z,24.3
2016-09-29T11:57:53.722Z,24.3
2016-09-29T11:58:53.712Z,24.39
2016-09-29T11:59:53.734Z,24.42
2016-09-29T12:00:53.676Z,24.38
2016-09-29T12:01:53.664Z,24.43
2016-09-29T12:02:53.647Z,24.54
2016-09-29T12:03:53.631Z,24.54
2016-09-29T12:04:53.614Z,24.58
2016-09-29T12:05:53.702Z,24.53
2016-09-29T12:06:53.608Z,24.66
2016-09-29T12:07:53.582Z,24.77
2016-09-29T12:08:53.561Z,24.7
2016-09-29T12:09:53.545Z,24.7
2016-09-29T12:10:53.531Z,24.73
2016-09-29T12:11:53.510Z,24.89
2016-09-29T12:12:53.503Z,24.93
2016-09-29T12:13:53.495Z,24.88
2016-09-29T12:14:53.470Z,24.85
2016-09-29T12:15:53.514Z,24.86
2016-09-29T12:16:53.444Z,25.01
2016-09-29T12:17:53.425Z,25.11
2016-09-29T12:18:53.418Z,25.1
2016-09-29T12:19:53.398Z,25.16
2016-09-29T12:20:53.387Z,25.1
2016-09-29T12:21:53.375Z,25.25
2016-09-29T12:22:53.356Z,25.25
2016-09-29T12:23:53.351Z,25.29
2016-09-29T12:24:53.348Z,25.21
2016-09-29T12:25:53.320Z,25.18
2016-09-29T12:26:53.303Z,25.17
2016-09-29T12:27:53.294Z,25.07
2016-09-29T12:28:53.284Z,25.11
2016-09-29T12:29:53.266Z,25.01
2016-09-29T12:30:53.246Z,25.06
2016-09-29T12:31:53.241Z,24.92
2016-09-29T12:32:53.221Z,24.93
2016-09-29T12:33:53.219Z,24.92
2016-09-29T12:34:53.195Z,24.86
2016-09-29T12:35:53.179Z,24.91
2016-09-29T12:36:53.168Z,24.99
2016-09-29T12:37:53.150Z,25.07
2016-09-29T12:38:53.538Z,25.18
2016-09-29T12:39:53.124Z,25.21
2016-09-29T12:40:53.428Z,25.1
2016-09-29T12:41:53.094Z,25.16
2016-09-29T12:42:53.381Z,25.21
2016-09-29T12:43:53.062Z,25.21
2016-09-29T12:44:53.056Z,25.17
2016-09-29T12:45:53.049Z,25.16
2016-09-29T12:46:53.330Z,25.08
2016-09-29T12:47:53.010Z,25.14
2016-09-29T12:48:52.996Z,25.01
2016-09-29T12:49:52.991Z,24.98
2016-09-29T12:50:52.968Z,24.96
2016-09-29T12:51:52.963Z,25.06
2016-09-29T12:52:52.943Z,25.04
2016-09-29T12:53:52.930Z,24.98
2016-09-29T12:54:52.917Z,24.89